sensor_id;sensor_type;location;lat;lon;timestamp;temperature;humidity
34099;DHT22;20374;49.474;10.944;2023-02-16T00:00:20;-0.50;99.90
34099;DHT22;20374;49.474;10.944;2023-02-16T00:02:46;-0.50;99.90
34099;DHT22;20374;49.474;10.944;2023-02-16T00:05:28;-0.50;99.90
34099;DHT22;20374;49.474;10.944;2023-02-16T00:07:55;-0.70;99.90
34099;DHT22;20374;49.474;10.944;2023-02-16T00:10:23;-0.60;99.90
34099;DHT22;20374;49.474;10.944;2023-02-16T00:12:49;-0.60;99.90
34099;DHT22;20374;49.474;10.944;2023-02-16T00:15:34;-0.60;99.90
34099;DHT22;20374;49.474;10.944;2023-02-16T00:18:01;-0.50;99.90
34099;DHT22;20374;49.474;10.944;2023-02-16T00:20:30;-0.50;99.90
34099;DHT22;20374;49.474;10.944;2023-02-16T00:22:57;-0.50;99.90
34099;DHT22;20374;49.474;10.944;2023-02-16T00:25:24;-0.50;99.90
34099;DHT22;20374;49.474;10.944;2023-02-16T00:27:50;-0.50;99.90
34099;DHT22;20374;49.474;10.944;2023-02-16T00:30:19;-0.50;99.90
34099;DHT22;20374;49.474;10.944;2023-02-16T00:32:48;-0.50;99.90
34099;DHT22;20374;49.474;10.944;2023-02-16T00:35:16;-0.50;99.90
34099;DHT22;20374;49.474;10.944;2023-02-16T00:37:43;-0.60;99.90
34099;DHT22;20374;49.474;10.944;2023-02-16T00:40:09;-0.60;99.90
34099;DHT22;20374;49.474;10.944;2023-02-16T00:42:36;-0.70;99.90
34099;DHT22;20374;49.474;10.944;2023-02-16T00:45:02;-0.70;99.90
34099;DHT22;20374;49.474;10.944;2023-02-16T00:47:35;-0.80;99.90
34099;DHT22;20374;49.474;10.944;2023-02-16T00:50:09;-0.80;99.90
34099;DHT22;20374;49.474;10.944;2023-02-16T00:52:39;-0.90;99.90
34099;DHT22;20374;49.474;10.944;2023-02-16T00:55:16;-1.00;99.90
34099;DHT22;20374;49.474;10.944;2023-02-16T00:57:49;-1.00;99.90
34099;DHT22;20374;49.474;10.944;2023-02-16T01:00:30;-1.00;99.90
34099;DHT22;20374;49.474;10.944;2023-02-16T01:03:02;-1.10;99.90
34099;DHT22;20374;49.474;10.944;2023-02-16T01:05:29;-1.10;99.90
34099;DHT22;20374;49.474;10.944;2023-02-16T01:07:58;-1.10;99.90
34099;DHT22;20374;49.474;10.944;2023-02-16T01:10:42;-1.20;99.90
34099;DHT22;20374;49.474;10.944;2023-02-16T01:13:28;-1.40;99.90
34099;DHT22;20374;49.474;10.944;2023-02-16T01:15:54;-1.30;99.90
34099;DHT22;20374;49.474;10.944;2023-02-16T01:18:20;-1.30;99.90
34099;DHT22;20374;49.474;10.944;2023-02-16T01:20:49;-1.50;99.90
34099;DHT22;20374;49.474;10.944;2023-02-16T01:23:15;-1.40;99.90
34099;DHT22;20374;49.474;10.944;2023-02-16T01:25:41;-1.50;99.90
34099;DHT22;20374;49.474;10.944;2023-02-16T01:28:20;-1.50;99.90
34099;DHT22;20374;49.474;10.944;2023-02-16T01:30:47;-1.50;99.90
34099;DHT22;20374;49.474;10.944;2023-02-16T01:33:13;-1.60;99.90
34099;DHT22;20374;49.474;10.944;2023-02-16T01:35:39;-1.60;99.90
34099;DHT22;20374;49.474;10.944;2023-02-16T01:38:05;-1.60;99.90
34099;DHT22;20374;49.474;10.944;2023-02-16T01:40:36;-1.50;99.90
34099;DHT22;20374;49.474;10.944;2023-02-16T01:43:23;-1.50;99.90
34099;DHT22;20374;49.474;10.944;2023-02-16T01:46:04;-1.50;99.90
34099;DHT22;20374;49.474;10.944;2023-02-16T01:48:32;-1.60;99.90
34099;DHT22;20374;49.474;10.944;2023-02-16T01:56:32;-1.60;99.90
34099;DHT22;20374;49.474;10.944;2023-02-16T01:59:14;-1.40;99.90
34099;DHT22;20374;49.474;10.944;2023-02-16T02:02:06;-1.50;99.90
34099;DHT22;20374;49.474;10.944;2023-02-16T02:04:47;-1.60;99.90
34099;DHT22;20374;49.474;10.944;2023-02-16T02:08:01;-1.70;99.90
34099;DHT22;20374;49.474;10.944;2023-02-16T02:16:03;-1.80;99.90
34099;DHT22;20374;49.474;10.944;2023-02-16T02:18:29;-1.80;99.90
34099;DHT22;20374;49.474;10.944;2023-02-16T02:21:22;-1.90;99.90
34099;DHT22;20374;49.474;10.944;2023-02-16T02:27:12;-1.80;99.90
34099;DHT22;20374;49.474;10.944;2023-02-16T02:45:42;-1.70;99.90
34099;DHT22;20374;49.474;10.944;2023-02-16T02:48:10;-1.70;99.90
34099;DHT22;20374;49.474;10.944;2023-02-16T02:50:58;-1.70;99.90
34099;DHT22;20374;49.474;10.944;2023-02-16T02:56:58;-1.70;99.90
34099;DHT22;20374;49.474;10.944;2023-02-16T02:59:51;-1.80;99.90
34099;DHT22;20374;49.474;10.944;2023-02-16T03:02:39;-1.70;99.90
34099;DHT22;20374;49.474;10.944;2023-02-16T03:05:06;-1.80;99.90
34099;DHT22;20374;49.474;10.944;2023-02-16T03:07:36;-1.70;99.90
34099;DHT22;20374;49.474;10.944;2023-02-16T03:10:18;-1.70;99.90
34099;DHT22;20374;49.474;10.944;2023-02-16T03:13:07;-1.70;99.90
34099;DHT22;20374;49.474;10.944;2023-02-16T03:15:35;-1.70;99.90
34099;DHT22;20374;49.474;10.944;2023-02-16T03:18:04;-1.90;99.90
34099;DHT22;20374;49.474;10.944;2023-02-16T03:20:50;-1.90;99.90
34099;DHT22;20374;49.474;10.944;2023-02-16T03:23:36;-1.80;99.90
34099;DHT22;20374;49.474;10.944;2023-02-16T03:26:23;-1.80;99.90
34099;DHT22;20374;49.474;10.944;2023-02-16T03:29:09;-1.80;99.90
34099;DHT22;20374;49.474;10.944;2023-02-16T03:31:51;-1.80;99.90
34099;DHT22;20374;49.474;10.944;2023-02-16T03:34:20;-1.80;99.90
34099;DHT22;20374;49.474;10.944;2023-02-16T03:36:49;-1.80;99.90
34099;DHT22;20374;49.474;10.944;2023-02-16T03:39:16;-1.90;99.90
34099;DHT22;20374;49.474;10.944;2023-02-16T03:41:48;-1.90;99.90
34099;DHT22;20374;49.474;10.944;2023-02-16T03:44:15;-1.90;99.90
34099;DHT22;20374;49.474;10.944;2023-02-16T03:46:41;-1.90;99.90
34099;DHT22;20374;49.474;10.944;2023-02-16T03:49:07;-1.90;99.90
34099;DHT22;20374;49.474;10.944;2023-02-16T03:51:33;-1.80;99.90
34099;DHT22;20374;49.474;10.944;2023-02-16T03:53:59;-1.90;99.90
34099;DHT22;20374;49.474;10.944;2023-02-16T03:56:25;-1.90;99.90
34099;DHT22;20374;49.474;10.944;2023-02-16T03:58:51;-1.90;99.90
34099;DHT22;20374;49.474;10.944;2023-02-16T04:01:17;-2.00;99.90
34099;DHT22;20374;49.474;10.944;2023-02-16T04:03:43;-2.00;99.90
34099;DHT22;20374;49.474;10.944;2023-02-16T04:06:09;-2.10;99.90
34099;DHT22;20374;49.474;10.944;2023-02-16T04:08:35;-2.00;99.90
34099;DHT22;20374;49.474;10.944;2023-02-16T04:11:01;-2.00;99.90
34099;DHT22;20374;49.474;10.944;2023-02-16T04:13:47;-2.00;99.90
34099;DHT22;20374;49.474;10.944;2023-02-16T04:16:13;-1.90;99.90
34099;DHT22;20374;49.474;10.944;2023-02-16T04:18:39;-1.90;99.90
34099;DHT22;20374;49.474;10.944;2023-02-16T04:21:05;-1.90;99.90
34099;DHT22;20374;49.474;10.944;2023-02-16T04:23:31;-1.80;99.90
34099;DHT22;20374;49.474;10.944;2023-02-16T04:25:57;-1.80;99.90
34099;DHT22;20374;49.474;10.944;2023-02-16T04:28:23;-1.80;99.90
34099;DHT22;20374;49.474;10.944;2023-02-16T04:30:51;-1.80;99.90
34099;DHT22;20374;49.474;10.944;2023-02-16T04:33:20;-1.80;99.90
34099;DHT22;20374;49.474;10.944;2023-02-16T04:35:46;-1.80;99.90
34099;DHT22;20374;49.474;10.944;2023-02-16T04:38:12;-1.80;99.90
34099;DHT22;20374;49.474;10.944;2023-02-16T04:40:38;-1.80;99.90
34099;DHT22;20374;49.474;10.944;2023-02-16T04:43:04;-1.70;99.90
34099;DHT22;20374;49.474;10.944;2023-02-16T04:45:30;-1.70;99.90
34099;DHT22;20374;49.474;10.944;2023-02-16T04:47:56;-1.70;99.90
34099;DHT22;20374;49.474;10.944;2023-02-16T04:50:22;-1.70;99.90
34099;DHT22;20374;49.474;10.944;2023-02-16T04:52:48;-1.70;99.90
34099;DHT22;20374;49.474;10.944;2023-02-16T04:55:14;-1.70;99.90
34099;DHT22;20374;49.474;10.944;2023-02-16T04:57:40;-1.70;99.90
34099;DHT22;20374;49.474;10.944;2023-02-16T05:00:08;-1.70;99.90
34099;DHT22;20374;49.474;10.944;2023-02-16T05:02:34;-1.80;99.90
34099;DHT22;20374;49.474;10.944;2023-02-16T05:05:00;-1.70;99.90
34099;DHT22;20374;49.474;10.944;2023-02-16T05:07:26;-1.80;99.90
34099;DHT22;20374;49.474;10.944;2023-02-16T05:09:52;-1.70;99.90
34099;DHT22;20374;49.474;10.944;2023-02-16T05:12:18;-1.80;99.90
34099;DHT22;20374;49.474;10.944;2023-02-16T05:15:04;-1.80;99.90
34099;DHT22;20374;49.474;10.944;2023-02-16T05:17:30;-1.90;99.90
34099;DHT22;20374;49.474;10.944;2023-02-16T05:19:58;-1.90;99.90
34099;DHT22;20374;49.474;10.944;2023-02-16T05:22:25;-1.90;99.90
34099;DHT22;20374;49.474;10.944;2023-02-16T05:25:00;-1.90;99.90
34099;DHT22;20374;49.474;10.944;2023-02-16T05:27:28;-1.90;99.90
34099;DHT22;20374;49.474;10.944;2023-02-16T05:29:54;-1.90;99.90
34099;DHT22;20374;49.474;10.944;2023-02-16T05:32:21;-1.90;99.90
34099;DHT22;20374;49.474;10.944;2023-02-16T05:34:47;-1.90;99.90
34099;DHT22;20374;49.474;10.944;2023-02-16T05:37:14;-1.90;99.90
34099;DHT22;20374;49.474;10.944;2023-02-16T05:39:41;-1.90;99.90
34099;DHT22;20374;49.474;10.944;2023-02-16T05:42:07;-2.00;99.90
34099;DHT22;20374;49.474;10.944;2023-02-16T05:44:33;-2.00;99.90
34099;DHT22;20374;49.474;10.944;2023-02-16T05:46:59;-2.00;99.90
34099;DHT22;20374;49.474;10.944;2023-02-16T05:49:26;-2.00;99.90
34099;DHT22;20374;49.474;10.944;2023-02-16T05:51:52;-2.00;99.90
34099;DHT22;20374;49.474;10.944;2023-02-16T05:54:18;-2.00;99.90
34099;DHT22;20374;49.474;10.944;2023-02-16T05:56:50;-2.00;99.90
34099;DHT22;20374;49.474;10.944;2023-02-16T05:59:17;-2.00;99.90
34099;DHT22;20374;49.474;10.944;2023-02-16T06:01:44;-2.00;99.90
34099;DHT22;20374;49.474;10.944;2023-02-16T06:04:12;-2.00;99.90
34099;DHT22;20374;49.474;10.944;2023-02-16T06:06:39;-2.00;99.90
34099;DHT22;20374;49.474;10.944;2023-02-16T06:09:07;-2.00;99.90
34099;DHT22;20374;49.474;10.944;2023-02-16T06:11:34;-2.00;99.90
34099;DHT22;20374;49.474;10.944;2023-02-16T06:14:03;-1.90;99.90
34099;DHT22;20374;49.474;10.944;2023-02-16T06:16:31;-1.90;99.90
34099;DHT22;20374;49.474;10.944;2023-02-16T06:19:00;-1.90;99.90
34099;DHT22;20374;49.474;10.944;2023-02-16T06:21:27;-1.90;99.90
34099;DHT22;20374;49.474;10.944;2023-02-16T06:23:54;-2.00;99.90
34099;DHT22;20374;49.474;10.944;2023-02-16T06:26:20;-1.70;99.90
34099;DHT22;20374;49.474;10.944;2023-02-16T06:28:46;-2.00;99.90
34099;DHT22;20374;49.474;10.944;2023-02-16T06:31:14;-1.90;99.90
34099;DHT22;20374;49.474;10.944;2023-02-16T06:33:40;-1.90;99.90
34099;DHT22;20374;49.474;10.944;2023-02-16T06:36:06;-1.90;99.90
34099;DHT22;20374;49.474;10.944;2023-02-16T06:38:39;-1.80;99.90
34099;DHT22;20374;49.474;10.944;2023-02-16T06:41:05;-1.80;99.90
34099;DHT22;20374;49.474;10.944;2023-02-16T06:43:31;-1.90;99.90
34099;DHT22;20374;49.474;10.944;2023-02-16T06:45:57;-1.90;99.90
34099;DHT22;20374;49.474;10.944;2023-02-16T06:48:23;-1.80;99.90
34099;DHT22;20374;49.474;10.944;2023-02-16T06:50:49;-1.70;99.90
34099;DHT22;20374;49.474;10.944;2023-02-16T06:53:15;-1.80;99.90
34099;DHT22;20374;49.474;10.944;2023-02-16T06:55:45;-1.80;99.90
34099;DHT22;20374;49.474;10.944;2023-02-16T06:58:11;-1.70;99.90
34099;DHT22;20374;49.474;10.944;2023-02-16T07:00:38;-1.70;99.90
34099;DHT22;20374;49.474;10.944;2023-02-16T07:03:04;-1.60;99.90
34099;DHT22;20374;49.474;10.944;2023-02-16T07:05:30;-1.60;99.90
34099;DHT22;20374;49.474;10.944;2023-02-16T07:07:56;-1.50;99.90
34099;DHT22;20374;49.474;10.944;2023-02-16T07:10:22;-1.50;99.90
34099;DHT22;20374;49.474;10.944;2023-02-16T07:12:48;-1.50;99.90
34099;DHT22;20374;49.474;10.944;2023-02-16T07:15:17;-1.40;99.90
34099;DHT22;20374;49.474;10.944;2023-02-16T07:17:50;-1.30;99.90
34099;DHT22;20374;49.474;10.944;2023-02-16T07:20:16;-1.40;99.90
34099;DHT22;20374;49.474;10.944;2023-02-16T07:22:43;-1.20;99.90
34099;DHT22;20374;49.474;10.944;2023-02-16T07:25:09;-1.20;99.90
34099;DHT22;20374;49.474;10.944;2023-02-16T07:27:35;-1.20;99.90
34099;DHT22;20374;49.474;10.944;2023-02-16T07:30:01;-1.10;99.90
34099;DHT22;20374;49.474;10.944;2023-02-16T07:32:28;-1.00;99.90
34099;DHT22;20374;49.474;10.944;2023-02-16T07:34:54;-1.00;99.90
34099;DHT22;20374;49.474;10.944;2023-02-16T07:37:20;-0.70;99.90
34099;DHT22;20374;49.474;10.944;2023-02-16T07:39:46;-0.40;99.90
34099;DHT22;20374;49.474;10.944;2023-02-16T07:42:12;-0.10;99.90
34099;DHT22;20374;49.474;10.944;2023-02-16T07:44:42;0.10;99.90
34099;DHT22;20374;49.474;10.944;2023-02-16T07:47:08;0.40;99.90
34099;DHT22;20374;49.474;10.944;2023-02-16T07:49:34;0.60;99.90
34099;DHT22;20374;49.474;10.944;2023-02-16T07:52:00;0.80;99.90
34099;DHT22;20374;49.474;10.944;2023-02-16T07:54:26;1.00;99.90
34099;DHT22;20374;49.474;10.944;2023-02-16T07:56:52;1.40;99.90
34099;DHT22;20374;49.474;10.944;2023-02-16T07:59:18;1.60;99.90
34099;DHT22;20374;49.474;10.944;2023-02-16T08:01:43;1.70;99.90
34099;DHT22;20374;49.474;10.944;2023-02-16T08:04:09;1.70;99.90
34099;DHT22;20374;49.474;10.944;2023-02-16T08:06:35;1.70;99.90
34099;DHT22;20374;49.474;10.944;2023-02-16T08:09:02;1.80;99.90
34099;DHT22;20374;49.474;10.944;2023-02-16T08:11:28;2.00;99.90
34099;DHT22;20374;49.474;10.944;2023-02-16T08:13:53;2.00;99.90
34099;DHT22;20374;49.474;10.944;2023-02-16T08:16:24;2.20;99.90
34099;DHT22;20374;49.474;10.944;2023-02-16T08:18:51;2.30;99.90
34099;DHT22;20374;49.474;10.944;2023-02-16T08:21:19;2.60;99.90
34099;DHT22;20374;49.474;10.944;2023-02-16T08:23:54;3.00;99.90
34099;DHT22;20374;49.474;10.944;2023-02-16T08:26:22;3.60;99.90
34099;DHT22;20374;49.474;10.944;2023-02-16T08:28:49;3.90;99.90
34099;DHT22;20374;49.474;10.944;2023-02-16T08:31:17;4.60;99.90
34099;DHT22;20374;49.474;10.944;2023-02-16T08:33:44;5.30;99.90
34099;DHT22;20374;49.474;10.944;2023-02-16T08:36:25;6.10;99.90
34099;DHT22;20374;49.474;10.944;2023-02-16T08:38:54;7.00;99.90
34099;DHT22;20374;49.474;10.944;2023-02-16T08:41:22;7.10;99.90
34099;DHT22;20374;49.474;10.944;2023-02-16T08:43:49;7.10;99.90
34099;DHT22;20374;49.474;10.944;2023-02-16T08:46:16;7.10;99.90
34099;DHT22;20374;49.474;10.944;2023-02-16T08:48:43;6.60;99.90
34099;DHT22;20374;49.474;10.944;2023-02-16T08:51:17;5.70;99.90
34099;DHT22;20374;49.474;10.944;2023-02-16T08:53:44;5.10;99.90
34099;DHT22;20374;49.474;10.944;2023-02-16T08:56:12;4.40;99.90
34099;DHT22;20374;49.474;10.944;2023-02-16T08:58:38;3.90;99.90
34099;DHT22;20374;49.474;10.944;2023-02-16T09:01:08;3.40;99.90
34099;DHT22;20374;49.474;10.944;2023-02-16T09:03:35;3.20;99.90
34099;DHT22;20374;49.474;10.944;2023-02-16T09:06:04;3.40;99.90
34099;DHT22;20374;49.474;10.944;2023-02-16T09:08:31;4.00;99.90
34099;DHT22;20374;49.474;10.944;2023-02-16T09:11:03;4.40;99.90
34099;DHT22;20374;49.474;10.944;2023-02-16T09:13:29;4.20;99.90
34099;DHT22;20374;49.474;10.944;2023-02-16T09:16:01;3.90;99.90
34099;DHT22;20374;49.474;10.944;2023-02-16T09:18:28;3.70;99.90
34099;DHT22;20374;49.474;10.944;2023-02-16T09:20:54;3.60;99.90
34099;DHT22;20374;49.474;10.944;2023-02-16T09:23:21;3.60;99.90
34099;DHT22;20374;49.474;10.944;2023-02-16T09:25:47;3.50;99.90
34099;DHT22;20374;49.474;10.944;2023-02-16T09:28:13;3.60;99.90
34099;DHT22;20374;49.474;10.944;2023-02-16T09:30:40;3.70;99.90
34099;DHT22;20374;49.474;10.944;2023-02-16T09:33:06;3.80;99.90
34099;DHT22;20374;49.474;10.944;2023-02-16T09:35:32;3.70;99.90
34099;DHT22;20374;49.474;10.944;2023-02-16T09:37:58;3.50;99.90
34099;DHT22;20374;49.474;10.944;2023-02-16T09:40:24;3.60;99.90
34099;DHT22;20374;49.474;10.944;2023-02-16T09:43:05;3.60;99.90
34099;DHT22;20374;49.474;10.944;2023-02-16T09:45:40;3.80;99.90
34099;DHT22;20374;49.474;10.944;2023-02-16T09:50:48;3.90;99.90
34099;DHT22;20374;49.474;10.944;2023-02-16T09:53:28;3.90;99.90
34099;DHT22;20374;49.474;10.944;2023-02-16T09:58:50;4.00;99.90
34099;DHT22;20374;49.474;10.944;2023-02-16T10:04:38;4.10;99.90
34099;DHT22;20374;49.474;10.944;2023-02-16T10:07:37;4.20;99.90
34099;DHT22;20374;49.474;10.944;2023-02-16T10:10:07;4.40;99.90
34099;DHT22;20374;49.474;10.944;2023-02-16T10:12:49;4.50;99.90
34099;DHT22;20374;49.474;10.944;2023-02-16T10:15:20;4.60;99.90
34099;DHT22;20374;49.474;10.944;2023-02-16T10:17:53;4.70;99.90
34099;DHT22;20374;49.474;10.944;2023-02-16T10:23:40;4.90;99.90
34099;DHT22;20374;49.474;10.944;2023-02-16T10:26:13;5.10;99.90
34099;DHT22;20374;49.474;10.944;2023-02-16T10:28:52;5.20;99.90
34099;DHT22;20374;49.474;10.944;2023-02-16T10:31:31;5.40;99.90
34099;DHT22;20374;49.474;10.944;2023-02-16T10:39:23;6.10;99.90
34099;DHT22;20374;49.474;10.944;2023-02-16T10:42:19;6.20;99.90
34099;DHT22;20374;49.474;10.944;2023-02-16T10:45:02;6.50;99.90
34099;DHT22;20374;49.474;10.944;2023-02-16T10:47:42;6.70;99.90
34099;DHT22;20374;49.474;10.944;2023-02-16T10:52:57;7.50;99.90
34099;DHT22;20374;49.474;10.944;2023-02-16T10:55:23;8.60;99.90
34099;DHT22;20374;49.474;10.944;2023-02-16T10:57:55;9.40;99.90
34099;DHT22;20374;49.474;10.944;2023-02-16T11:03:14;9.40;99.90
34099;DHT22;20374;49.474;10.944;2023-02-16T11:05:40;9.30;99.90
34099;DHT22;20374;49.474;10.944;2023-02-16T11:08:07;9.70;99.90
34099;DHT22;20374;49.474;10.944;2023-02-16T11:10:39;10.20;99.90
34099;DHT22;20374;49.474;10.944;2023-02-16T11:13:06;10.40;99.90
34099;DHT22;20374;49.474;10.944;2023-02-16T11:15:34;10.10;99.90
34099;DHT22;20374;49.474;10.944;2023-02-16T11:18:07;9.80;99.90
34099;DHT22;20374;49.474;10.944;2023-02-16T11:28:28;9.60;99.90
34099;DHT22;20374;49.474;10.944;2023-02-16T11:36:44;10.50;99.90
34099;DHT22;20374;49.474;10.944;2023-02-16T11:41:51;11.00;99.90
34099;DHT22;20374;49.474;10.944;2023-02-16T11:44:49;11.20;99.90
34099;DHT22;20374;49.474;10.944;2023-02-16T11:47:27;11.30;98.50
34099;DHT22;20374;49.474;10.944;2023-02-16T11:52:38;11.30;97.60
34099;DHT22;20374;49.474;10.944;2023-02-16T11:55:18;11.20;97.20
34099;DHT22;20374;49.474;10.944;2023-02-16T11:57:45;11.20;97.30
34099;DHT22;20374;49.474;10.944;2023-02-16T12:00:20;11.10;98.40
34099;DHT22;20374;49.474;10.944;2023-02-16T12:05:49;11.20;98.20
34099;DHT22;20374;49.474;10.944;2023-02-16T12:13:57;12.10;97.30
34099;DHT22;20374;49.474;10.944;2023-02-16T12:17:29;12.50;97.90
34099;DHT22;20374;49.474;10.944;2023-02-16T12:19:41;12.60;95.30
34099;DHT22;20374;49.474;10.944;2023-02-16T12:24:55;12.60;95.70
34099;DHT22;20374;49.474;10.944;2023-02-16T12:38:36;13.70;94.10
34099;DHT22;20374;49.474;10.944;2023-02-16T12:49:04;18.00;85.20
34099;DHT22;20374;49.474;10.944;2023-02-16T12:52:02;18.90;78.40
34099;DHT22;20374;49.474;10.944;2023-02-16T12:54:29;19.50;75.70
34099;DHT22;20374;49.474;10.944;2023-02-16T12:57:07;20.40;76.40
34099;DHT22;20374;49.474;10.944;2023-02-16T13:00:04;20.70;71.40
34099;DHT22;20374;49.474;10.944;2023-02-16T13:02:43;21.30;69.20
34099;DHT22;20374;49.474;10.944;2023-02-16T13:05:17;20.60;60.20
34099;DHT22;20374;49.474;10.944;2023-02-16T13:07:48;20.80;60.30
34099;DHT22;20374;49.474;10.944;2023-02-16T13:10:39;20.20;59.80
34099;DHT22;20374;49.474;10.944;2023-02-16T13:13:18;20.30;61.50
34099;DHT22;20374;49.474;10.944;2023-02-16T13:18:25;20.70;58.20
34099;DHT22;20374;49.474;10.944;2023-02-16T13:21:16;20.50;60.20
34099;DHT22;20374;49.474;10.944;2023-02-16T13:43:29;17.10;63.60
34099;DHT22;20374;49.474;10.944;2023-02-16T13:45:59;16.90;64.10
34099;DHT22;20374;49.474;10.944;2023-02-16T13:48:46;17.30;63.30
34099;DHT22;20374;49.474;10.944;2023-02-16T13:51:16;17.60;65.70
34099;DHT22;20374;49.474;10.944;2023-02-16T13:53:56;18.40;63.50
34099;DHT22;20374;49.474;10.944;2023-02-16T13:58:57;18.50;61.90
34099;DHT22;20374;49.474;10.944;2023-02-16T14:01:39;18.50;59.90
34099;DHT22;20374;49.474;10.944;2023-02-16T14:06:40;18.70;59.70
34099;DHT22;20374;49.474;10.944;2023-02-16T14:16:51;19.40;59.30
34099;DHT22;20374;49.474;10.944;2023-02-16T14:19:23;19.70;59.90
34099;DHT22;20374;49.474;10.944;2023-02-16T14:21:50;19.70;59.00
34099;DHT22;20374;49.474;10.944;2023-02-16T14:24:32;19.80;58.90
34099;DHT22;20374;49.474;10.944;2023-02-16T14:29:39;18.80;59.70
34099;DHT22;20374;49.474;10.944;2023-02-16T14:32:21;18.00;60.40
34099;DHT22;20374;49.474;10.944;2023-02-16T14:37:27;16.10;65.30
34099;DHT22;20374;49.474;10.944;2023-02-16T14:39:54;16.00;66.30
34099;DHT22;20374;49.474;10.944;2023-02-16T14:42:31;15.60;66.70
34099;DHT22;20374;49.474;10.944;2023-02-16T14:45:16;15.50;67.30
34099;DHT22;20374;49.474;10.944;2023-02-16T14:50:54;15.10;68.20
34099;DHT22;20374;49.474;10.944;2023-02-16T14:56:33;14.50;69.40
34099;DHT22;20374;49.474;10.944;2023-02-16T15:01:41;14.50;72.50
34099;DHT22;20374;49.474;10.944;2023-02-16T15:04:08;14.70;72.60
34099;DHT22;20374;49.474;10.944;2023-02-16T15:06:44;14.80;70.70
34099;DHT22;20374;49.474;10.944;2023-02-16T15:09:28;14.30;71.30
34099;DHT22;20374;49.474;10.944;2023-02-16T15:12:02;13.90;73.00
34099;DHT22;20374;49.474;10.944;2023-02-16T15:15:06;13.70;73.90
34099;DHT22;20374;49.474;10.944;2023-02-16T15:17:39;13.50;74.40
34099;DHT22;20374;49.474;10.944;2023-02-16T15:20:29;13.30;75.10
34099;DHT22;20374;49.474;10.944;2023-02-16T15:23:15;13.10;76.00
34099;DHT22;20374;49.474;10.944;2023-02-16T15:25:41;12.80;76.80
34099;DHT22;20374;49.474;10.944;2023-02-16T15:30:40;12.40;79.00
34099;DHT22;20374;49.474;10.944;2023-02-16T15:33:35;12.30;80.20
34099;DHT22;20374;49.474;10.944;2023-02-16T15:36:06;12.30;80.80
34099;DHT22;20374;49.474;10.944;2023-02-16T15:38:37;12.30;81.40
34099;DHT22;20374;49.474;10.944;2023-02-16T15:41:12;12.10;81.90
34099;DHT22;20374;49.474;10.944;2023-02-16T15:43:46;12.10;83.20
34099;DHT22;20374;49.474;10.944;2023-02-16T15:46:22;12.00;83.20
34099;DHT22;20374;49.474;10.944;2023-02-16T15:48:48;11.90;84.00
34099;DHT22;20374;49.474;10.944;2023-02-16T15:59:01;11.70;87.10
34099;DHT22;20374;49.474;10.944;2023-02-16T16:01:34;11.60;87.50
34099;DHT22;20374;49.474;10.944;2023-02-16T16:04:21;11.50;88.00
34099;DHT22;20374;49.474;10.944;2023-02-16T16:06:49;11.40;88.50
34099;DHT22;20374;49.474;10.944;2023-02-16T16:09:34;11.30;89.60
34099;DHT22;20374;49.474;10.944;2023-02-16T16:12:05;11.20;90.00
34099;DHT22;20374;49.474;10.944;2023-02-16T16:14:40;11.10;90.50
34099;DHT22;20374;49.474;10.944;2023-02-16T16:17:12;10.90;91.00
34099;DHT22;20374;49.474;10.944;2023-02-16T16:19:40;10.80;91.40
34099;DHT22;20374;49.474;10.944;2023-02-16T16:24:58;10.60;92.30
34099;DHT22;20374;49.474;10.944;2023-02-16T16:27:30;10.50;92.80
34099;DHT22;20374;49.474;10.944;2023-02-16T16:32:44;10.40;93.30
34099;DHT22;20374;49.474;10.944;2023-02-16T16:35:21;10.40;93.70
34099;DHT22;20374;49.474;10.944;2023-02-16T16:37:51;10.20;94.20
34099;DHT22;20374;49.474;10.944;2023-02-16T16:45:48;9.90;96.10
34099;DHT22;20374;49.474;10.944;2023-02-16T16:48:31;9.90;96.40
34099;DHT22;20374;49.474;10.944;2023-02-16T16:53:56;9.80;97.10
34099;DHT22;20374;49.474;10.944;2023-02-16T16:56:25;9.80;97.30
34099;DHT22;20374;49.474;10.944;2023-02-16T16:58:53;9.80;97.80
34099;DHT22;20374;49.474;10.944;2023-02-16T17:01:22;9.70;98.10
34099;DHT22;20374;49.474;10.944;2023-02-16T17:03:49;9.80;98.40
34099;DHT22;20374;49.474;10.944;2023-02-16T17:06:16;9.70;98.70
34099;DHT22;20374;49.474;10.944;2023-02-16T17:08:43;9.70;99.20
34099;DHT22;20374;49.474;10.944;2023-02-16T17:11:29;9.60;99.70
34099;DHT22;20374;49.474;10.944;2023-02-16T17:14:02;9.40;99.90
34099;DHT22;20374;49.474;10.944;2023-02-16T17:16:34;9.20;99.90
34099;DHT22;20374;49.474;10.944;2023-02-16T17:19:01;9.20;99.90
34099;DHT22;20374;49.474;10.944;2023-02-16T17:21:28;9.20;99.90
34099;DHT22;20374;49.474;10.944;2023-02-16T17:23:54;9.10;99.90
34099;DHT22;20374;49.474;10.944;2023-02-16T17:26:23;8.90;99.90
34099;DHT22;20374;49.474;10.944;2023-02-16T17:28:49;8.80;99.90
34099;DHT22;20374;49.474;10.944;2023-02-16T17:31:15;8.80;99.90
34099;DHT22;20374;49.474;10.944;2023-02-16T17:33:41;8.80;99.90
34099;DHT22;20374;49.474;10.944;2023-02-16T17:36:11;8.70;99.90
34099;DHT22;20374;49.474;10.944;2023-02-16T17:38:38;8.70;99.90
34099;DHT22;20374;49.474;10.944;2023-02-16T17:41:04;8.60;99.90
34099;DHT22;20374;49.474;10.944;2023-02-16T17:43:30;8.50;99.90
34099;DHT22;20374;49.474;10.944;2023-02-16T17:45:56;8.40;99.90
34099;DHT22;20374;49.474;10.944;2023-02-16T17:48:28;8.30;99.90
34099;DHT22;20374;49.474;10.944;2023-02-16T17:50:58;8.30;99.90
34099;DHT22;20374;49.474;10.944;2023-02-16T17:53:27;8.20;99.90
34099;DHT22;20374;49.474;10.944;2023-02-16T17:55:55;8.10;99.90
34099;DHT22;20374;49.474;10.944;2023-02-16T17:58:22;8.10;99.90
34099;DHT22;20374;49.474;10.944;2023-02-16T18:00:49;8.00;99.90
34099;DHT22;20374;49.474;10.944;2023-02-16T18:03:15;8.00;99.90
34099;DHT22;20374;49.474;10.944;2023-02-16T18:05:41;8.00;99.90
34099;DHT22;20374;49.474;10.944;2023-02-16T18:08:07;8.00;99.90
34099;DHT22;20374;49.474;10.944;2023-02-16T18:10:44;8.00;99.90
34099;DHT22;20374;49.474;10.944;2023-02-16T18:13:12;8.00;99.90
34099;DHT22;20374;49.474;10.944;2023-02-16T18:15:40;8.10;99.90
34099;DHT22;20374;49.474;10.944;2023-02-16T18:18:07;8.10;99.90
34099;DHT22;20374;49.474;10.944;2023-02-16T18:20:33;8.20;99.90
34099;DHT22;20374;49.474;10.944;2023-02-16T18:22:59;8.40;99.90
34099;DHT22;20374;49.474;10.944;2023-02-16T18:25:25;8.30;99.90
34099;DHT22;20374;49.474;10.944;2023-02-16T18:27:51;8.40;99.90
34099;DHT22;20374;49.474;10.944;2023-02-16T18:30:17;8.40;99.90
34099;DHT22;20374;49.474;10.944;2023-02-16T18:32:43;8.40;99.90
34099;DHT22;20374;49.474;10.944;2023-02-16T18:35:11;8.50;99.90
34099;DHT22;20374;49.474;10.944;2023-02-16T18:37:37;8.50;99.90
34099;DHT22;20374;49.474;10.944;2023-02-16T18:40:05;8.40;99.90
34099;DHT22;20374;49.474;10.944;2023-02-16T18:42:31;8.40;99.90